Time;durP1;ratioP1;P1;durP2;ratioP2;P2;SDS_P1;SDS_P2;PMS_P1;PMS_P2;Temp;Humidity;BMP_temperature;BMP_pressure;BME280_temperature;BME280_humidity;BME280_pressure;Samples;Min_cycle;Max_cycle;Signal;HPM_P1;HPM_P2
2023/04/18 01:16:57;;;;;;;23.52;14.35;;;8.00;89.10;;;;;;6258367;22;85308;-87
2023/04/18 02:18:17;;;;;;;26.02;14.57;;;7.00;89.40;;;;;;6190740;22;86930;31
2023/04/18 02:21:34;;;;;;;21.08;13.80;;;7.00;89.60;;;;;;6213507;22;88298;31
2023/04/18 02:24:44;;;;;;;19.10;13.70;;;7.00;89.30;;;;;;6141675;22;88114;-92
2023/04/18 02:30:43;;;;;;;26.02;14.18;;;7.00;88.20;;;;;;6237267;22;84745;-94
2023/04/18 02:36:44;;;;;;;21.00;13.65;;;6.90;88.40;;;;;;6273541;22;86062;-91
2023/04/18 02:42:29;;;;;;;20.75;13.73;;;6.80;88.50;;;;;;6223998;22;85271;-89
2023/04/18 02:45:39;;;;;;;27.52;13.52;;;6.80;88.70;;;;;;6101555;23;85697;-94
2023/04/18 02:48:29;;;;;;;22.08;13.50;;;6.70;88.60;;;;;;5957909;23;85263;-91
2023/04/18 02:51:39;;;;;;;28.05;14.00;;;6.70;88.10;;;;;;5815520;23;84909;-89
2023/04/18 02:54:06;;;;;;;23.38;13.65;;;6.70;88.60;;;;;;5792551;24;84984;-91
2023/04/18 02:57:12;;;;;;;23.27;14.23;;;6.60;88.60;;;;;;5763550;24;86904;-91
2023/04/18 03:00:19;;;;;;;23.30;13.63;;;6.60;89.20;;;;;;5650026;24;85168;-93
2023/04/18 03:03:26;;;;;;;23.23;13.75;;;6.60;88.70;;;;;;5507938;25;85533;-94
2023/04/18 03:06:12;;;;;;;22.73;14.40;;;6.60;88.60;;;;;;5537327;25;85026;-92
2023/04/18 03:08:40;;;;;;;26.13;13.85;;;6.60;88.80;;;;;;5521605;25;85730;-92
2023/04/18 03:11:25;;;;;;;25.38;13.27;;;6.50;88.20;;;;;;5495633;25;85433;-93
2023/04/18 03:14:11;;;;;;;23.63;13.20;;;6.50;88.40;;;;;;5488262;25;85167;-93
2023/04/18 03:16:57;;;;;;;30.92;13.60;;;6.50;88.70;;;;;;5448628;25;84998;-94
2023/04/18 03:19:23;;;;;;;23.05;13.20;;;6.50;89.10;;;;;;5438865;25;85191;-90
2023/04/18 03:21:50;;;;;;;26.05;13.93;;;6.50;89.00;;;;;;5431093;26;84994;-92
2023/04/18 03:24:16;;;;;;;23.63;13.93;;;6.40;88.60;;;;;;5464168;26;84979;-89
2023/04/18 03:26:42;;;;;;;26.35;15.02;;;6.40;88.70;;;;;;5478320;25;85165;-91
2023/04/18 03:29:28;;;;;;;23.83;13.15;;;6.40;88.70;;;;;;5558113;25;85586;-90
2023/04/18 03:31:54;;;;;;;20.10;12.98;;;6.40;88.40;;;;;;5601991;25;85035;-91
2023/04/18 03:34:40;;;;;;;20.63;12.93;;;6.30;88.60;;;;;;5567667;25;87071;-90
2023/04/18 03:37:06;;;;;;;25.98;13.60;;;6.30;88.70;;;;;;5663710;24;85012;-91
2023/04/18 03:39:31;;;;;;;22.20;14.05;;;6.30;89.40;;;;;;5668305;24;85799;-87
2023/04/18 03:42:00;;;;;;;19.40;12.23;;;6.20;89.40;;;;;;5684480;24;85457;-91
2023/04/18 03:44:26;;;;;;;28.20;14.23;;;6.20;89.10;;;;;;5718944;24;84803;-89
2023/04/18 03:46:54;;;;;;;24.50;13.50;;;6.10;89.50;;;;;;5701006;24;85057;-90
2023/04/18 03:49:20;;;;;;;24.52;14.25;;;6.10;89.60;;;;;;5751189;24;85998;-89
2023/04/18 03:51:46;;;;;;;21.05;13.13;;;6.10;89.90;;;;;;5755777;24;85389;-91
2023/04/18 03:54:13;;;;;;;22.42;13.15;;;6.10;89.70;;;;;;5778801;24;85104;-89
2023/04/18 03:56:39;;;;;;;22.65;14.52;;;6.00;89.20;;;;;;5831264;24;85022;-89
2023/04/18 03:59:05;;;;;;;25.35;13.95;;;6.00;89.80;;;;;;5772718;24;85267;-90
2023/04/18 04:01:31;;;;;;;30.08;14.05;;;6.00;89.30;;;;;;5796012;24;85007;-89
2023/04/18 04:03:57;;;;;;;23.45;13.98;;;6.00;90.00;;;;;;5773223;24;84875;-90
2023/04/18 04:06:23;;;;;;;23.17;14.02;;;6.00;89.80;;;;;;5795242;24;85172;-89
2023/04/18 04:08:48;;;;;;;23.70;14.20;;;6.00;90.30;;;;;;5794988;24;85207;-88
2023/04/18 04:11:14;;;;;;;23.35;14.50;;;5.90;90.00;;;;;;5890403;23;84960;-90
2023/04/18 04:13:40;;;;;;;23.35;14.20;;;5.90;90.30;;;;;;5930978;23;85184;-90
2023/04/18 04:16:06;;;;;;;24.73;12.82;;;5.90;90.30;;;;;;5930328;23;85858;-88
2023/04/18 04:18:31;;;;;;;20.33;13.13;;;5.90;90.20;;;;;;5907418;23;85401;-89
2023/04/18 04:20:58;;;;;;;26.38;14.52;;;5.80;90.10;;;;;;5906571;23;84846;-90
2023/04/18 04:23:26;;;;;;;22.85;14.20;;;5.80;90.40;;;;;;5906904;23;84830;-93
2023/04/18 04:25:53;;;;;;;23.38;14.43;;;5.80;90.40;;;;;;5930158;23;85362;-90
2023/04/18 04:28:22;;;;;;;26.73;14.40;;;5.70;90.60;;;;;;5906044;23;85688;-91
2023/04/18 04:30:49;;;;;;;26.23;14.55;;;5.70;90.70;;;;;;5905936;23;85002;-92
2023/04/18 04:33:18;;;;;;;23.77;14.30;;;5.70;90.70;;;;;;5902470;23;85180;-90
2023/04/18 04:35:45;;;;;;;26.25;15.10;;;5.60;90.70;;;;;;5911043;23;85859;-91
2023/04/18 04:38:11;;;;;;;25.27;15.15;;;5.60;90.90;;;;;;6006312;23;85261;-93
2023/04/18 04:40:37;;;;;;;30.80;15.82;;;5.60;91.00;;;;;;6015839;23;85240;-90
2023/04/18 04:43:03;;;;;;;23.73;14.57;;;5.50;90.90;;;;;;6063252;23;85382;-92
2023/04/18 04:45:28;;;;;;;25.33;14.13;;;5.50;91.00;;;;;;6049649;23;85006;-92
2023/04/18 04:47:54;;;;;;;21.70;14.32;;;5.50;91.10;;;;;;6049076;23;85698;-90
2023/04/18 04:50:20;;;;;;;27.65;14.52;;;5.50;91.30;;;;;;6049528;23;84987;-93
2023/04/18 04:52:45;;;;;;;26.73;15.40;;;5.50;91.10;;;;;;6050119;23;84800;-92
2023/04/18 04:55:11;;;;;;;24.73;14.50;;;5.40;91.40;;;;;;6044215;23;85004;-93
2023/04/18 04:57:37;;;;;;;26.00;15.05;;;5.40;91.30;;;;;;6043184;23;85870;-92
2023/04/18 05:00:07;;;;;;;27.90;15.93;;;5.40;91.60;;;;;;6049327;23;85059;-92
2023/04/18 05:02:32;;;;;;;25.70;15.20;;;5.40;91.80;;;;;;6049431;23;85042;-92
2023/04/18 05:04:58;;;;;;;26.42;14.63;;;5.30;91.50;;;;;;6032236;23;85038;-92
2023/04/18 05:07:24;;;;;;;24.02;14.57;;;5.40;91.60;;;;;;6044759;23;85119;-93
2023/04/18 05:09:52;;;;;;;26.48;15.02;;;5.30;91.70;;;;;;6044314;23;84931;-93
2023/04/18 05:12:17;;;;;;;25.02;15.30;;;5.30;91.80;;;;;;6044971;23;84965;-93
2023/04/18 05:14:43;;;;;;;25.88;15.50;;;5.30;91.70;;;;;;6044399;23;85073;-91
2023/04/18 05:17:08;;;;;;;27.50;15.30;;;5.30;91.70;;;;;;6045415;23;85716;-92
2023/04/18 05:19:34;;;;;;;26.77;15.48;;;5.40;91.90;;;;;;6044497;23;84925;-93
2023/04/18 05:22:00;;;;;;;21.92;13.75;;;5.40;91.60;;;;;;6044947;23;84800;-93
2023/04/18 05:24:25;;;;;;;26.30;15.40;;;5.40;91.60;;;;;;6044493;23;85080;-93
2023/04/18 05:26:51;;;;;;;25.25;14.88;;;5.40;91.70;;;;;;6071194;23;85699;-93
2023/04/18 05:29:17;;;;;;;22.85;14.80;;;5.50;91.70;;;;;;6103078;23;85225;-92
2023/04/18 05:31:43;;;;;;;25.65;14.55;;;5.50;91.80;;;;;;6104136;23;84975;-92
2023/04/18 05:34:08;;;;;;;28.67;14.60;;;5.50;91.70;;;;;;6103389;23;84909;-91
2023/04/18 05:36:34;;;;;;;21.98;13.50;;;5.60;91.70;;;;;;6148205;22;88236;-91
2023/04/18 05:39:00;;;;;;;22.95;14.90;;;5.60;91.50;;;;;;6102862;23;85317;-93
2023/04/18 05:41:25;;;;;;;21.08;14.23;;;5.70;91.60;;;;;;6102290;23;84895;-91
2023/04/18 05:43:51;;;;;;;25.67;13.77;;;5.70;91.60;;;;;;6078950;23;85584;-92
2023/04/18 05:46:17;;;;;;;29.90;16.25;;;5.80;91.90;;;;;;6015135;23;85668;-91
2023/04/18 05:48:42;;;;;;;20.95;13.10;;;5.80;91.60;;;;;;5989199;23;85623;-91
2023/04/18 05:51:08;;;;;;;20.65;13.38;;;5.90;91.40;;;;;;5990296;23;85017;-88
2023/04/18 05:53:34;;;;;;;20.88;12.77;;;6.00;91.50;;;;;;5985533;23;85109;-86
2023/04/18 05:56:00;;;;;;;21.40;13.50;;;6.10;91.50;;;;;;5961352;23;88193;-89
2023/04/18 06:05:09;;;;;;;17.38;12.52;;;6.30;91.20;;;;;;5964878;23;86022;-91
2023/04/18 06:07:35;;;;;;;24.38;13.55;;;6.40;91.10;;;;;;5940593;23;85813;-92
2023/04/18 06:10:01;;;;;;;21.65;13.27;;;6.40;90.80;;;;;;5951982;23;87274;-88
2023/04/18 06:12:27;;;;;;;22.33;13.73;;;6.50;90.80;;;;;;5977832;23;85021;-88
2023/04/18 06:15:14;;;;;;;20.40;12.57;;;6.60;90.90;;;;;;5954942;23;84893;-90
2023/04/18 06:18:00;;;;;;;20.40;12.27;;;6.70;90.60;;;;;;5980485;23;85417;-90
2023/04/18 06:20:26;;;;;;;19.92;12.80;;;6.80;90.60;;;;;;5983901;23;88083;-91
2023/04/18 06:23:12;;;;;;;22.10;13.23;;;6.80;90.40;;;;;;5955894;23;84804;-92
2023/04/18 06:26:18;;;;;;;20.92;13.05;;;6.90;90.40;;;;;;5917660;23;85181;-90
2023/04/18 06:29:47;;;;;;;18.63;12.30;;;7.00;90.00;;;;;;5833574;24;89926;-91
2023/04/18 06:35:58;;;;;;;22.65;13.20;;;7.30;89.20;;;;;;6277273;22;85204;31
2023/04/18 06:39:14;;;;;;;23.35;13.10;;;7.40;89.70;;;;;;6248518;22;86641;-82
2023/04/18 07:20:46;;;;;;;21.92;12.73;;;9.00;83.40;;;;;;6214411;22;87555;-94
2023/04/18 07:23:13;;;;;;;21.05;11.52;;;9.10;83.30;;;;;;6233261;22;86323;-89
2023/04/18 07:26:00;;;;;;;24.17;12.13;;;9.20;81.80;;;;;;6261327;22;86296;-78
2023/04/18 07:28:26;;;;;;;20.00;11.80;;;9.30;81.70;;;;;;6261299;22;85849;-80
2023/04/18 07:30:54;;;;;;;23.73;13.57;;;9.40;81.30;;;;;;6263123;22;87146;-80
2023/04/18 07:33:20;;;;;;;22.15;12.77;;;9.50;80.40;;;;;;6257039;22;86463;-81
2023/04/18 07:35:45;;;;;;;18.05;12.68;;;9.60;80.80;;;;;;6262413;22;85596;-80
2023/04/18 07:38:12;;;;;;;21.25;13.25;;;9.70;80.90;;;;;;6260344;22;85957;-81
2023/04/18 07:40:37;;;;;;;21.88;13.52;;;9.90;79.70;;;;;;6259215;22;86987;-81
2023/04/18 07:43:03;;;;;;;22.30;13.82;;;9.90;78.80;;;;;;6284197;22;89668;-81
2023/04/18 07:45:29;;;;;;;21.75;12.63;;;10.10;79.60;;;;;;6257905;22;86200;-80
2023/04/18 07:47:55;;;;;;;18.50;13.02;;;10.20;78.30;;;;;;6258292;22;86441;-80
2023/04/18 07:50:23;;;;;;;21.92;13.25;;;10.20;78.10;;;;;;6260367;22;85963;-81
2023/04/18 07:52:48;;;;;;;23.98;14.18;;;10.20;78.00;;;;;;6287669;22;87460;-80
2023/04/18 07:55:14;;;;;;;23.52;14.73;;;10.30;77.30;;;;;;6257663;22;86273;-80
2023/04/18 07:57:42;;;;;;;19.80;13.25;;;10.30;78.60;;;;;;6259107;22;86110;-81
2023/04/18 08:00:09;;;;;;;20.27;13.65;;;10.40;78.20;;;;;;6284440;22;90513;-80
2023/04/18 08:02:35;;;;;;;20.25;14.00;;;10.70;78.00;;;;;;6257775;22;86697;-80
2023/04/18 08:05:00;;;;;;;22.58;13.75;;;11.00;78.10;;;;;;6258888;22;86247;-80
2023/04/18 08:07:26;;;;;;;26.00;14.05;;;11.30;76.60;;;;;;6282245;22;85687;-80
2023/04/18 08:09:52;;;;;;;21.30;13.60;;;11.50;75.10;;;;;;6255977;22;87891;-80
2023/04/18 08:12:17;;;;;;;19.60;14.38;;;11.70;73.70;;;;;;6255618;22;88822;-80
2023/04/18 08:14:43;;;;;;;23.90;14.85;;;11.70;72.80;;;;;;6255626;22;86099;-80
2023/04/18 08:17:09;;;;;;;19.80;13.80;;;11.70;73.00;;;;;;6256794;22;85920;-80
2023/04/18 08:19:34;;;;;;;19.90;13.98;;;11.60;73.30;;;;;;6254061;22;86330;-80
2023/04/18 08:22:09;;;;;;;19.98;12.95;;;11.70;72.80;;;;;;6254961;22;86093;-80
2023/04/18 08:24:36;;;;;;;21.83;13.68;;;11.80;72.10;;;;;;6255152;22;86090;-80
2023/04/18 08:27:02;;;;;;;20.88;13.52;;;11.80;71.80;;;;;;6256751;22;86099;-79
2023/04/18 08:29:28;;;;;;;19.98;14.25;;;12.00;71.90;;;;;;6266664;22;87503;-81
2023/04/18 08:31:57;;;;;;;24.10;14.38;;;12.00;71.90;;;;;;6266388;22;87207;-79
2023/04/18 08:34:23;;;;;;;22.35;14.93;;;12.20;70.60;;;;;;6235144;22;87210;-80
2023/04/18 08:39:26;;;;;;;24.08;14.00;;;12.50;71.00;;;;;;6230673;22;85649;-77
2023/04/18 08:41:58;;;;;;;19.98;14.48;;;12.70;69.50;;;;;;6239249;22;86458;-80
2023/04/18 08:44:27;;;;;;;24.48;14.10;;;12.70;67.10;;;;;;6152204;22;87450;-81
2023/04/18 08:49:31;;;;;;;21.95;14.10;;;13.00;68.70;;;;;;6233818;22;87450;-81
2023/04/18 08:52:00;;;;;;;24.13;13.07;;;13.20;68.10;;;;;;6235520;22;88764;-79
2023/04/18 09:02:12;;;;;;;18.60;12.63;;;13.80;64.70;;;;;;6259378;22;87785;-81
2023/04/18 09:07:13;;;;;;;17.85;12.15;;;14.00;63.60;;;;;;6226664;22;85855;-79
2023/04/18 09:09:46;;;;;;;20.40;12.30;;;14.10;63.40;;;;;;6205090;22;87330;-77
2023/04/18 09:12:17;;;;;;;;;;;14.10;62.60;;;;;;6229948;22;85977;-79
2023/04/18 09:14:48;;;;;;;16.02;10.88;;;14.20;61.50;;;;;;6224234;22;85939;-80
2023/04/18 09:17:36;;;;;;;18.52;11.32;;;14.30;60.20;;;;;;6198110;22;86292;-79
2023/04/18 09:20:08;;;;;;;19.02;11.60;;;14.30;61.20;;;;;;6200883;22;89217;-80
2023/04/18 09:22:51;;;;;;;17.83;11.70;;;14.50;62.30;;;;;;6201466;22;88199;-81
2023/04/18 09:25:45;;;;;;;16.27;10.40;;;14.70;60.00;;;;;;6229741;22;86311;-80
2023/04/18 09:28:28;;;;;;;19.60;10.32;;;14.70;59.10;;;;;;6195262;22;87299;-80
2023/04/18 09:30:56;;;;;;;17.17;11.02;;;14.80;60.10;;;;;;6228737;22;86348;-80
2023/04/18 09:33:32;;;;;;;14.70;10.43;;;14.90;59.00;;;;;;6230104;22;85848;-81
2023/04/18 09:36:19;;;;;;;16.05;10.25;;;15.00;58.20;;;;;;6228821;22;86036;-81
2023/04/18 09:38:46;;;;;;;18.60;11.95;;;15.10;58.40;;;;;;6228546;22;85764;-81
2023/04/18 09:41:14;;;;;;;15.50;11.38;;;15.30;58.40;;;;;;6226148;22;86907;-80
2023/04/18 09:43:40;;;;;;;19.55;11.90;;;15.70;58.40;;;;;;6222166;22;94034;-80
2023/04/18 09:46:07;;;;;;;17.65;12.38;;;16.00;57.50;;;;;;6226574;22;86227;-80
2023/04/18 09:48:32;;;;;;;14.50;11.82;;;16.20;57.50;;;;;;6222254;22;86227;-80
2023/04/18 09:51:06;;;;;;;15.68;13.18;;;16.10;57.00;;;;;;6222619;22;89367;-77
2023/04/18 09:53:38;;;;;;;15.68;12.27;;;15.70;57.40;;;;;;6211621;22;87041;-78
2023/04/18 09:56:06;;;;;;;19.05;12.93;;;15.50;59.20;;;;;;6204330;22;85829;-78
2023/04/18 09:58:33;;;;;;;16.88;12.63;;;15.50;58.70;;;;;;6220225;22;86172;-78
2023/04/18 10:00:59;;;;;;;19.58;12.50;;;15.40;59.20;;;;;;6208067;22;87004;-79
2023/04/18 10:03:33;;;;;;;17.63;12.65;;;15.60;57.70;;;;;;6222893;22;86264;-78
2023/04/18 10:05:59;;;;;;;13.30;10.70;;;15.80;57.20;;;;;;6231690;22;86071;-78
2023/04/18 10:08:26;;;;;;;16.05;11.02;;;16.40;57.70;;;;;;6239588;22;85220;-78
2023/04/18 10:10:54;;;;;;;14.57;10.85;;;16.80;55.70;;;;;;6243468;22;86491;-78
2023/04/18 10:13:20;;;;;;;14.50;11.15;;;17.00;55.30;;;;;;6238290;22;88531;-78
2023/04/18 10:15:48;;;;;;;14.27;11.02;;;17.20;54.90;;;;;;6240636;22;85718;-77
2023/04/18 10:18:18;;;;;;;15.18;10.63;;;17.40;54.40;;;;;;6242347;22;87349;-77
2023/04/18 10:20:46;;;;;;;12.85;8.95;;;17.40;53.90;;;;;;6242119;22;89718;-79
2023/04/18 10:23:36;;;;;;;13.10;8.90;;;17.50;54.40;;;;;;6242687;22;86691;-77
2023/04/18 10:26:03;;;;;;;13.20;9.52;;;17.60;52.80;;;;;;6244254;22;88316;-78
2023/04/18 10:28:55;;;;;;;11.63;8.57;;;17.60;51.30;;;;;;6241188;22;85785;-77
2023/04/18 10:31:26;;;;;;;12.18;8.55;;;17.60;52.20;;;;;;6214445;22;90566;-77
2023/04/18 10:33:59;;;;;;;13.30;8.13;;;17.40;51.90;;;;;;6230780;22;86026;-78
2023/04/18 10:36:27;;;;;;;10.68;8.30;;;17.30;53.00;;;;;;6230258;22;86305;-78
2023/04/18 10:39:24;;;;;;;11.13;8.13;;;17.40;53.50;;;;;;6228988;22;85699;-78
2023/04/18 10:41:50;;;;;;;10.43;7.68;;;17.30;53.40;;;;;;6172381;22;86846;-79
2023/04/18 10:46:51;;;;;;;11.98;7.72;;;17.50;53.70;;;;;;6191008;22;87644;-80
2023/04/18 10:49:30;;;;;;;9.10;7.00;;;17.60;52.60;;;;;;6237654;22;86114;-79
2023/04/18 10:52:00;;;;;;;9.82;6.57;;;17.80;52.60;;;;;;6212890;22;90761;-79
2023/04/18 10:54:47;;;;;;;9.90;7.32;;;18.10;53.10;;;;;;6227698;22;85563;-78
2023/04/18 10:57:14;;;;;;;15.73;7.40;;;18.40;52.50;;;;;;6177931;22;86898;-78
2023/04/18 11:00:11;;;;;;;10.40;7.18;;;18.50;51.10;;;;;;6224139;22;86166;-80
2023/04/18 11:02:37;;;;;;;13.13;6.68;;;18.60;52.30;;;;;;6227294;22;86677;-80
2023/04/18 11:05:05;;;;;;;11.43;7.25;;;18.50;51.50;;;;;;6223735;22;86599;-77
2023/04/18 11:07:51;;;;;;;15.50;8.18;;;18.70;50.00;;;;;;6224300;22;85684;-78
2023/04/18 11:10:25;;;;;;;9.35;7.50;;;18.80;51.70;;;;;;6231284;22;85764;-77
2023/04/18 11:13:03;;;;;;;10.95;7.13;;;19.30;48.40;;;;;;6226792;22;94918;-78
2023/04/18 11:15:28;;;;;;;9.93;7.78;;;19.20;49.70;;;;;;6233870;22;88174;-80
2023/04/18 11:18:03;;;;;;;10.88;9.13;;;19.40;50.10;;;;;;6207849;22;86249;-78
2023/04/18 11:20:44;;;;;;;31.73;8.82;;;19.80;49.60;;;;;;6191789;22;85857;-80
2023/04/18 11:23:28;;;;;;;16.95;6.38;;;20.20;48.40;;;;;;6193277;22;86420;-78
2023/04/18 11:29:17;;;;;;;13.02;7.68;;;19.90;49.80;;;;;;6186641;22;86285;-78
2023/04/18 11:31:52;;;;;;;9.25;8.27;;;20.10;47.80;;;;;;6192689;22;86065;-77
2023/04/18 11:34:17;;;;;;;9.27;8.27;;;20.50;48.90;;;;;;6196592;22;87378;-80
2023/04/18 11:39:18;;;;;;;12.60;9.23;;;21.00;45.60;;;;;;6255182;22;86366;-80
2023/04/18 11:44:25;;;;;;;13.60;10.50;;;20.90;44.90;;;;;;6255037;22;87266;-80
2023/04/18 11:46:52;;;;;;;10.95;9.70;;;20.60;46.40;;;;;;6249592;22;86796;-78
2023/04/18 11:49:44;;;;;;;10.15;9.15;;;20.70;46.30;;;;;;6249695;22;86405;-79
2023/04/18 11:55:31;;;;;;;11.02;8.90;;;20.80;46.60;;;;;;6154913;22;85933;-79
2023/04/18 11:57:59;;;;;;;14.32;7.40;;;20.80;44.60;;;;;;6154990;22;86519;-77
2023/04/18 12:00:34;;;;;;;8.45;7.63;;;20.50;48.20;;;;;;6238748;22;85972;-79
2023/04/18 12:03:03;;;;;;;11.98;6.38;;;20.40;48.30;;;;;;6254970;22;86256;-79
2023/04/18 12:05:31;;;;;;;8.90;6.60;;;20.50;48.90;;;;;;6226472;22;88819;-78
2023/04/18 12:08:18;;;;;;;10.50;6.50;;;20.50;48.00;;;;;;6247689;22;87406;-78
2023/04/18 12:10:46;;;;;;;8.13;6.80;;;20.30;47.70;;;;;;6251224;22;87942;-78
2023/04/18 12:13:11;;;;;;;8.93;6.15;;;20.30;46.70;;;;;;6250495;22;86157;-78
2023/04/18 12:15:39;;;;;;;10.90;7.20;;;20.50;47.60;;;;;;6250966;22;87597;-78
2023/04/18 12:18:07;;;;;;;10.82;6.88;;;20.70;46.70;;;;;;6251420;22;86808;-78
2023/04/18 12:20:52;;;;;;;13.02;7.65;;;20.90;47.70;;;;;;6223547;22;85912;-78
2023/04/18 12:23:39;;;;;;;9.13;6.75;;;21.10;45.90;;;;;;6222914;22;86245;-78
2023/04/18 12:26:13;;;;;;;10.90;7.45;;;21.20;45.00;;;;;;6223627;22;90322;-79
2023/04/18 12:28:38;;;;;;;8.55;7.18;;;21.10;46.00;;;;;;6248528;22;94011;-78
2023/04/18 12:31:10;;;;;;;9.07;7.45;;;21.10;46.20;;;;;;6250330;22;86185;-78
2023/04/18 12:33:36;;;;;;;8.88;6.70;;;21.20;46.50;;;;;;6249774;22;85949;-79
2023/04/18 12:36:04;;;;;;;10.15;7.78;;;21.10;46.30;;;;;;6250286;22;86347;-78
2023/04/18 12:38:29;;;;;;;14.50;7.60;;;21.10;45.00;;;;;;6224574;22;88971;-78
2023/04/18 12:40:55;;;;;;;10.85;7.53;;;21.20;46.30;;;;;;6252166;22;86131;-79
2023/04/18 12:43:20;;;;;;;9.18;7.10;;;21.40;46.90;;;;;;6251056;22;85771;-79
2023/04/18 12:45:46;;;;;;;11.15;8.07;;;21.90;46.00;;;;;;6250534;22;87315;-79
2023/04/18 12:48:12;;;;;;;9.38;6.68;;;22.00;45.30;;;;;;6252396;22;86583;-79
2023/04/18 12:50:38;;;;;;;9.50;7.55;;;22.20;44.70;;;;;;6252052;22;85789;-79
2023/04/18 12:56:25;;;;;;;9.20;7.35;;;22.80;45.30;;;;;;6251402;22;90435;-79
2023/04/18 12:58:51;;;;;;;8.25;6.45;;;22.70;45.30;;;;;;6253856;22;86659;-79
2023/04/18 13:01:16;;;;;;;9.48;7.40;;;22.90;44.90;;;;;;6252191;22;86293;-79
2023/04/18 13:03:42;;;;;;;8.98;7.78;;;23.00;43.90;;;;;;6253049;22;85794;-79
2023/04/18 13:06:08;;;;;;;8.73;6.90;;;23.00;43.50;;;;;;6251683;22;87400;-78
2023/04/18 13:08:34;;;;;;;9.38;7.53;;;23.00;44.20;;;;;;6252093;22;86654;-79
2023/04/18 13:11:00;;;;;;;8.90;6.72;;;23.20;43.00;;;;;;6253747;22;85724;-79
2023/04/18 13:13:25;;;;;;;8.38;7.05;;;23.40;43.90;;;;;;6252216;22;86209;-79
2023/04/18 13:15:54;;;;;;;8.30;6.80;;;23.70;44.00;;;;;;6223988;22;90218;-79
2023/04/18 13:18:20;;;;;;;10.57;7.10;;;23.90;43.10;;;;;;6251369;22;86582;-79
2023/04/18 13:20:46;;;;;;;9.95;7.57;;;23.70;42.80;;;;;;6250373;22;86335;-86
2023/04/18 13:23:11;;;;;;;9.43;7.75;;;23.90;42.70;;;;;;6225111;22;86087;-83
2023/04/18 13:25:37;;;;;;;8.43;7.25;;;24.00;42.90;;;;;;6221712;22;90285;-86
2023/04/18 13:28:03;;;;;;;11.40;7.85;;;24.30;41.50;;;;;;6247986;22;86560;-81
2023/04/18 13:30:29;;;;;;;7.97;6.70;;;24.40;41.90;;;;;;6220233;22;86456;-83
2023/04/18 13:32:55;;;;;;;8.55;7.57;;;24.40;43.40;;;;;;6248404;22;86630;-82
2023/04/18 13:35:21;;;;;;;8.10;7.32;;;24.40;42.20;;;;;;6249636;22;87168;-88
2023/04/18 13:46:08;;;;;;;10.02;8.27;;;22.30;45.20;;;;;;6217575;22;87837;-81
2023/04/18 13:48:33;;;;;;;12.05;9.32;;;22.30;46.30;;;;;;6280234;22;91470;-82
2023/04/18 13:50:59;;;;;;;9.70;8.65;;;22.80;45.50;;;;;;6272638;22;87241;-82
2023/04/18 13:53:25;;;;;;;9.57;8.55;;;23.20;43.60;;;;;;6254480;22;86179;-82
2023/04/18 13:55:50;;;;;;;11.57;8.48;;;23.60;43.60;;;;;;6254702;22;87032;-87
2023/04/18 13:58:21;;;;;;;13.10;8.63;;;23.90;43.20;;;;;;6252826;22;86292;-83
2023/04/18 14:00:47;;;;;;;9.68;8.43;;;24.20;41.30;;;;;;6250702;22;86363;-81
2023/04/18 14:03:12;;;;;;;9.07;7.40;;;24.10;41.90;;;;;;6251152;22;85967;-82
2023/04/18 14:05:38;;;;;;;10.70;8.10;;;23.90;44.20;;;;;;6251085;22;87346;-81
2023/04/18 14:08:04;;;;;;;9.38;7.85;;;23.90;43.70;;;;;;6224579;22;90096;-82
2023/04/18 14:24:04;;;;;;;9.13;7.22;;;25.10;40.50;;;;;;6251222;22;86271;-83
2023/04/18 14:26:30;;;;;;;11.32;7.60;;;25.40;41.50;;;;;;6251511;22;86286;-82
2023/04/18 14:28:56;;;;;;;12.82;8.50;;;25.20;41.30;;;;;;6252328;22;87346;-83
2023/04/18 14:31:21;;;;;;;9.55;8.65;;;25.00;41.50;;;;;;6223410;22;89195;-82
2023/04/18 14:33:47;;;;;;;9.65;8.65;;;24.60;41.90;;;;;;6250848;22;86033;-83
2023/04/18 14:36:31;;;;;;;12.82;8.88;;;24.40;41.90;;;;;;6250987;22;86434;-81
2023/04/18 14:38:57;;;;;;;11.98;9.77;;;24.50;42.20;;;;;;6250618;22;86378;-81
2023/04/18 14:41:23;;;;;;;11.32;9.00;;;24.60;42.00;;;;;;6250111;22;85974;-82
2023/04/18 14:43:49;;;;;;;9.32;8.13;;;24.10;41.90;;;;;;6253348;22;86165;-83
2023/04/18 14:46:15;;;;;;;10.23;7.30;;;24.00;43.20;;;;;;6252598;22;85805;-85
2023/04/18 14:55:26;;;;;;;8.32;7.53;;;23.70;44.10;;;;;;6256314;22;85524;-84
2023/04/18 14:58:30;;;;;;;;;;;23.80;44.00;;;;;;6192485;22;86100;-85
2023/04/18 15:16:02;;;;;;;10.90;9.35;;;24.60;41.90;;;;;;6250878;22;86926;-89
2023/04/18 15:18:28;;;;;;;9.35;8.32;;;24.70;41.50;;;;;;6250852;22;86353;-89
2023/04/18 15:20:55;;;;;;;12.07;9.32;;;24.90;42.20;;;;;;6252295;22;85731;-89
2023/04/18 15:23:21;;;;;;;11.45;9.25;;;25.20;40.50;;;;;;6223907;22;89392;-90
2023/04/18 16:33:55;;;;;;;;;;;25.00;40.90;;;;;;6255598;22;86792;-86
2023/04/18 16:36:21;;;;;;;11.20;9.18;;;25.10;41.00;;;;;;6226789;22;88758;-88
2023/04/18 16:38:47;;;;;;;12.85;10.32;;;25.40;41.10;;;;;;6224117;22;87073;-87
2023/04/18 16:41:12;;;;;;;12.57;10.13;;;25.20;40.30;;;;;;6224376;22;85716;-88
2023/04/18 16:43:38;;;;;;;12.55;10.38;;;25.00;41.20;;;;;;6223238;22;89106;-87
2023/04/18 16:46:04;;;;;;;13.43;10.82;;;25.10;41.00;;;;;;6223778;22;89383;-87
2023/04/18 17:07:00;;;;;;;15.30;11.25;;;23.10;44.30;;;;;;6241472;22;86505;-82
2023/04/18 17:09:26;;;;;;;15.55;11.57;;;23.50;43.80;;;;;;6261299;22;86059;-82
2023/04/18 17:31:15;;;;;;;18.08;13.95;;;19.10;52.30;;;;;;6279332;22;85282;-83
2023/04/18 17:33:45;;;;;;;19.80;14.15;;;19.00;52.00;;;;;;5978025;23;85301;-83
2023/04/18 17:36:35;;;;;;;15.18;13.10;;;19.00;52.10;;;;;;5932814;23;85664;-83
2023/04/18 19:42:27;;;;;;;19.60;14.98;;;12.20;73.50;;;;;;6243823;22;85057;-84
2023/04/18 19:46:09;;;;;;;;;;;12.10;73.70;;;;;;6176505;22;85189;-84
2023/04/18 20:04:51;;;;;;;22.70;16.15;;;11.70;75.80;;;;;;6183883;22;85076;-82
2023/04/18 20:07:40;;;;;;;23.50;15.13;;;11.70;75.70;;;;;;6072061;23;85539;-83
2023/04/18 20:10:57;;;;;;;24.73;16.38;;;11.60;76.60;;;;;;5961972;23;85072;-86
2023/04/18 20:14:13;;;;;;;19.88;15.02;;;11.60;76.30;;;;;;5882155;23;88070;-84
2023/04/18 20:17:20;;;;;;;22.73;15.68;;;11.60;76.80;;;;;;5832195;24;85506;-85
2023/04/18 20:30:20;;;;;;;28.25;16.85;;;11.30;77.70;;;;;;5832187;24;85194;-83
2023/04/18 20:33:11;;;;;;;23.25;15.82;;;11.20;78.20;;;;;;5762208;24;85619;-82
2023/04/18 20:35:57;;;;;;;24.80;17.48;;;11.20;78.70;;;;;;5789500;24;84936;-84
2023/04/18 20:38:49;;;;;;;24.50;16.10;;;11.10;78.30;;;;;;5824176;24;86099;-83
2023/04/18 20:41:47;;;;;;;25.25;18.05;;;11.10;79.00;;;;;;5813057;24;90190;-83
2023/04/18 20:45:09;;;;;;;24.92;17.52;;;11.00;78.90;;;;;;5736135;24;88121;-84
2023/04/18 20:48:12;;;;;;;35.47;19.23;;;11.00;79.60;;;;;;5716446;24;87105;-85
2023/04/18 21:11:19;;;;;;;27.40;19.10;;;10.60;81.30;;;;;;6044466;23;85871;-84
2023/04/18 21:14:10;;;;;;;28.25;19.58;;;10.50;81.90;;;;;;6002006;23;84863;-86
2023/04/18 21:17:21;;;;;;;32.05;20.30;;;10.50;82.50;;;;;;5982542;23;86275;-85
2023/04/18 21:23:48;;;;;;;32.35;20.55;;;10.40;83.40;;;;;;5944134;23;85017;-86
2023/04/18 21:26:35;;;;;;;28.85;21.45;;;10.40;83.00;;;;;;5985542;23;87162;-80
2023/04/18 21:29:04;;;;;;;26.63;18.88;;;10.40;83.70;;;;;;5912718;23;88471;-84
2023/04/18 21:31:39;;;;;;;28.05;20.08;;;10.40;83.00;;;;;;5928626;23;86304;-84
2023/04/18 21:44:35;;;;;;;27.70;20.25;;;10.30;84.10;;;;;;5896204;23;89118;-83
2023/04/18 21:47:45;;;;;;;31.83;22.42;;;10.20;83.80;;;;;;5926337;23;85049;-84
2023/04/18 21:50:37;;;;;;;30.60;22.00;;;10.20;84.30;;;;;;5927551;23;86794;-80
2023/04/18 22:03:28;;;;;;;34.92;21.13;;;9.90;85.40;;;;;;6057293;23;85532;-84
2023/04/18 22:06:15;;;;;;;30.23;21.45;;;9.90;85.60;;;;;;6021224;23;85725;-85
2023/04/18 22:09:07;;;;;;;32.22;21.92;;;9.90;85.40;;;;;;6024974;23;85521;-82
2023/04/18 22:11:43;;;;;;;32.63;22.75;;;9.90;86.00;;;;;;5979217;23;88777;-85
2023/04/18 22:17:33;;;;;;;34.22;21.55;;;9.80;86.10;;;;;;5936237;23;89192;-85
2023/04/18 22:21:02;;;;;;;31.83;22.13;;;9.70;86.30;;;;;;5969483;23;85242;-84
2023/04/18 22:23:50;;;;;;;29.50;20.77;;;9.70;86.70;;;;;;5877970;23;85421;-83
2023/04/18 22:26:17;;;;;;;33.13;22.50;;;9.70;86.70;;;;;;5902528;23;85349;-84
2023/04/18 22:35:54;;;;;;;34.75;22.55;;;9.60;86.90;;;;;;5832416;24;85309;-85
2023/04/18 22:38:40;;;;;;;30.77;21.80;;;9.60;87.30;;;;;;5775006;24;85501;-85
2023/04/18 22:41:46;;;;;;;31.58;20.15;;;9.50;87.30;;;;;;5773721;24;85760;-84
2023/04/18 22:44:55;;;;;;;32.65;21.42;;;9.50;87.10;;;;;;5701057;24;86151;-85
2023/04/18 22:47:58;;;;;;;27.88;19.75;;;9.50;87.60;;;;;;5682679;24;85326;-84
2023/04/18 22:50:31;;;;;;;31.10;22.08;;;9.40;87.30;;;;;;5676122;24;85115;-82